Time;durP1;ratioP1;P1;durP2;ratioP2;P2;SDS_P1;SDS_P2;PMS_P1;PMS_P2;Temp;Humidity;BMP_temperature;BMP_pressure;BME280_temperature;BME280_humidity;BME280_pressure;Samples;Min_cycle;Max_cycle;Signal;HPM_P1;HPM_P2
2023/01/09 00:01:39;;;;;;;45.70;26.85;;;;;;;;;;5116789;28;20051;-73
2023/01/09 00:04:25;;;;;;;44.85;25.52;;;;;;;;;;5117013;28;20028;-73
2023/01/09 00:07:11;;;;;;;47.03;25.65;;;;;;;;;;5117039;28;20011;-72
2023/01/09 00:09:56;;;;;;;47.63;25.63;;;;;;;;;;5116902;28;20110;-73
2023/01/09 00:12:42;;;;;;;54.88;28.08;;;;;;;;;;5116810;28;20020;-73
2023/01/09 00:15:27;;;;;;;51.60;27.75;;;;;;;;;;5101175;28;20115;-73
2023/01/09 00:18:13;;;;;;;59.58;30.85;;;;;;;;;;5116857;28;20028;-72
2023/01/09 00:21:00;;;;;;;58.85;31.88;;;;;;;;;;5101456;28;20027;-73
2023/01/09 00:23:45;;;;;;;56.85;29.42;;;;;;;;;;5101327;28;20111;-74
2023/01/09 00:26:31;;;;;;;57.65;29.35;;;;;;;;;;5116087;28;20012;-74
2023/01/09 00:29:17;;;;;;;59.90;30.85;;;;;;;;;;5116504;28;20392;-75
2023/01/09 00:32:02;;;;;;;57.85;30.42;;;;;;;;;;5116239;28;20035;-74
2023/01/09 00:34:48;;;;;;;57.45;31.30;;;;;;;;;;5101344;28;20028;-74
2023/01/09 00:37:33;;;;;;;59.47;29.30;;;;;;;;;;5116020;28;20039;-73
2023/01/09 00:40:19;;;;;;;76.85;33.33;;;;;;;;;;5100938;28;20024;-74
2023/01/09 00:43:04;;;;;;;63.90;32.45;;;;;;;;;;5115249;28;20356;-74
2023/01/09 00:45:50;;;;;;;55.83;29.65;;;;;;;;;;5116072;28;20035;-73
2023/01/09 00:48:40;;;;;;;56.72;29.55;;;;;;;;;;5100131;28;20023;-74
2023/01/09 00:51:26;;;;;;;55.17;29.10;;;;;;;;;;5099996;28;20030;-76
2023/01/09 00:54:13;;;;;;;58.22;29.48;;;;;;;;;;5114708;28;20473;-75
2023/01/09 00:56:59;;;;;;;70.30;30.55;;;;;;;;;;5116323;28;20038;-72
2023/01/09 00:59:45;;;;;;;46.95;26.88;;;;;;;;;;5101155;28;20031;-74
2023/01/09 01:02:30;;;;;;;52.33;28.10;;;;;;;;;;5114822;28;20093;-72
2023/01/09 01:08:20;;;;;;;53.08;28.42;;;;;;;;;;5115247;28;20049;-73
2023/01/09 01:11:11;;;;;;;62.90;28.50;;;;;;;;;;5114490;28;20584;-74
2023/01/09 01:13:56;;;;;;;50.38;28.08;;;;;;;;;;5115225;28;20507;-74
2023/01/09 01:16:42;;;;;;;54.42;28.00;;;;;;;;;;5115991;28;20023;-73
2023/01/09 01:19:28;;;;;;;45.25;26.27;;;;;;;;;;5114851;28;20038;-72
2023/01/09 01:22:13;;;;;;;49.70;27.40;;;;;;;;;;5114990;28;20023;-73
2023/01/09 01:24:59;;;;;;;53.45;29.10;;;;;;;;;;5114824;28;20027;-73
2023/01/09 01:27:44;;;;;;;80.03;29.38;;;;;;;;;;5099936;28;20012;-73
2023/01/09 01:30:30;;;;;;;49.42;27.67;;;;;;;;;;5115609;28;20043;-72
2023/01/09 01:33:16;;;;;;;55.45;29.60;;;;;;;;;;5114741;28;20019;-74
2023/01/09 01:36:01;;;;;;;80.03;31.45;;;;;;;;;;5115791;28;20020;-74
2023/01/09 01:38:47;;;;;;;61.17;30.48;;;;;;;;;;5115507;28;20396;-74
2023/01/09 01:41:32;;;;;;;68.13;31.20;;;;;;;;;;5114659;28;20020;-76
2023/01/09 01:44:36;;;;;;;53.10;28.75;;;;;;;;;;5115572;28;20110;-73
2023/01/09 01:47:24;;;;;;;55.90;28.75;;;;;;;;;;5112158;28;20000;-74
2023/01/09 01:50:15;;;;;;;60.50;30.15;;;;;;;;;;5110523;28;20352;-74
2023/01/09 01:53:05;;;;;;;56.63;29.10;;;;;;;;;;5116257;28;20023;-73
2023/01/09 01:55:50;;;;;;;55.78;29.17;;;;;;;;;;5115616;28;20031;-74
2023/01/09 01:58:42;;;;;;;53.95;29.40;;;;;;;;;;5115198;28;20012;-74
2023/01/09 02:01:28;;;;;;;68.32;29.77;;;;;;;;;;5107005;28;20139;-74
2023/01/09 02:04:13;;;;;;;60.72;30.58;;;;;;;;;;5114394;28;20446;-74
2023/01/09 02:07:01;;;;;;;58.40;30.17;;;;;;;;;;5114190;28;20110;-74
2023/01/09 02:09:47;;;;;;;81.18;31.20;;;;;;;;;;5101124;28;20027;-73
2023/01/09 02:12:33;;;;;;;54.60;28.98;;;;;;;;;;5100712;28;20125;-73
2023/01/09 02:15:19;;;;;;;81.05;31.60;;;;;;;;;;5114934;28;20012;-74
2023/01/09 02:18:05;;;;;;;53.97;28.60;;;;;;;;;;5114880;28;20581;-74
2023/01/09 02:21:03;;;;;;;90.20;30.17;;;;;;;;;;5113467;28;20023;-73
2023/01/09 02:23:58;;;;;;;51.45;29.25;;;;;;;;;;5099977;28;20016;-73
2023/01/09 02:26:52;;;;;;;57.60;30.30;;;;;;;;;;5114799;28;20019;-73
2023/01/09 02:29:47;;;;;;;61.85;30.23;;;;;;;;;;5100604;28;20031;-73
2023/01/09 02:32:39;;;;;;;51.40;28.42;;;;;;;;;;5100466;28;20019;-74
2023/01/09 02:35:24;;;;;;;54.72;29.33;;;;;;;;;;5125482;28;20012;-73
2023/01/09 02:38:31;;;;;;;55.40;28.65;;;;;;;;;;5103219;28;20020;-73
2023/01/09 02:41:20;;;;;;;50.75;28.55;;;;;;;;;;5119787;28;20394;-74
2023/01/09 02:44:21;;;;;;;54.63;29.10;;;;;;;;;;5102804;28;20027;-73
2023/01/09 02:47:16;;;;;;;53.13;28.83;;;;;;;;;;5118157;28;20026;-74
2023/01/09 02:50:03;;;;;;;49.30;27.35;;;;;;;;;;5118098;28;20012;-73
2023/01/09 02:52:52;;;;;;;52.47;26.55;;;;;;;;;;5117435;28;20073;-73
2023/01/09 02:55:49;;;;;;;58.90;29.25;;;;;;;;;;5117873;28;20024;-73
2023/01/09 02:59:04;;;;;;;51.25;28.77;;;;;;;;;;5116632;28;20055;-74
2023/01/09 03:02:22;;;;;;;56.88;28.77;;;;;;;;;;5043027;28;20490;-73
2023/01/09 03:05:08;;;;;;;56.60;28.90;;;;;;;;;;5070415;28;20035;-73
2023/01/09 03:07:53;;;;;;;57.03;30.08;;;;;;;;;;5103527;28;20027;-74
2023/01/09 03:10:57;;;;;;;56.13;30.20;;;;;;;;;;5118728;28;20019;-74
2023/01/09 03:13:48;;;;;;;58.58;29.85;;;;;;;;;;5102084;28;20024;-74
2023/01/09 03:16:35;;;;;;;55.70;29.67;;;;;;;;;;5102041;28;20072;-74
2023/01/09 03:19:22;;;;;;;53.63;28.52;;;;;;;;;;5117797;28;20031;-73
2023/01/09 03:22:08;;;;;;;59.75;30.08;;;;;;;;;;5116426;28;20035;-74
2023/01/09 03:24:54;;;;;;;92.32;32.88;;;;;;;;;;5117290;28;20020;-73
2023/01/09 03:27:39;;;;;;;56.25;30.15;;;;;;;;;;5116991;28;20447;-73
2023/01/09 03:30:26;;;;;;;70.13;30.65;;;;;;;;;;5103214;28;20024;-73
2023/01/09 03:33:11;;;;;;;63.95;31.08;;;;;;;;;;5117171;28;20020;-73
2023/01/09 03:35:57;;;;;;;56.00;28.17;;;;;;;;;;5117475;28;20024;-73
2023/01/09 03:38:42;;;;;;;57.03;30.33;;;;;;;;;;5117146;28;20035;-74
2023/01/09 03:41:28;;;;;;;57.63;29.63;;;;;;;;;;5117147;28;20455;-74
2023/01/09 03:44:13;;;;;;;57.67;28.85;;;;;;;;;;5117018;28;20031;-74
2023/01/09 03:46:59;;;;;;;51.17;26.83;;;;;;;;;;5116981;28;20012;-75
2023/01/09 03:49:45;;;;;;;79.53;30.08;;;;;;;;;;5116762;28;20047;-74
2023/01/09 03:52:30;;;;;;;63.10;28.35;;;;;;;;;;5116436;28;20016;-74
2023/01/09 03:55:16;;;;;;;54.90;28.70;;;;;;;;;;5117458;28;20035;-75
2023/01/09 03:58:02;;;;;;;57.67;27.92;;;;;;;;;;5116503;28;20016;-74
2023/01/09 04:00:48;;;;;;;59.85;28.02;;;;;;;;;;5116815;28;20506;-74
2023/01/09 04:03:33;;;;;;;53.72;27.77;;;;;;;;;;5117170;28;20115;-74
2023/01/09 04:06:19;;;;;;;50.28;26.65;;;;;;;;;;5116735;28;20031;-74
2023/01/09 04:09:05;;;;;;;53.95;27.25;;;;;;;;;;5102351;28;20088;-75
2023/01/09 04:11:50;;;;;;;53.22;26.38;;;;;;;;;;5102064;28;20047;-75
2023/01/09 04:14:36;;;;;;;55.00;26.77;;;;;;;;;;5115524;28;20020;-74
2023/01/09 04:17:21;;;;;;;48.47;26.38;;;;;;;;;;5117033;28;20028;-74
2023/01/09 04:20:07;;;;;;;48.35;25.23;;;;;;;;;;5116232;28;20040;-73
2023/01/09 04:22:53;;;;;;;89.30;28.17;;;;;;;;;;5116375;28;20519;-74
2023/01/09 04:25:39;;;;;;;44.60;24.92;;;;;;;;;;5115528;28;20020;-74
2023/01/09 04:28:24;;;;;;;47.40;25.38;;;;;;;;;;5116031;28;20177;-74
2023/01/09 04:31:10;;;;;;;75.38;25.83;;;;;;;;;;5115428;28;20015;-73
2023/01/09 04:33:55;;;;;;;54.92;26.45;;;;;;;;;;5116132;28;20032;-75
2023/01/09 04:36:41;;;;;;;47.95;24.75;;;;;;;;;;5116018;28;20347;-75
2023/01/09 04:39:27;;;;;;;45.58;24.13;;;;;;;;;;5116384;28;20172;-74
2023/01/09 04:42:13;;;;;;;48.65;25.25;;;;;;;;;;5115817;28;20030;-76
2023/01/09 04:44:58;;;;;;;63.78;25.83;;;;;;;;;;5115903;28;20140;-75
2023/01/09 04:47:44;;;;;;;48.35;25.35;;;;;;;;;;5114279;28;20473;-74
2023/01/09 04:50:29;;;;;;;52.38;27.13;;;;;;;;;;5113963;28;20076;-74
2023/01/09 04:53:15;;;;;;;48.10;24.27;;;;;;;;;;5101403;28;20019;-74
2023/01/09 04:56:01;;;;;;;49.58;24.85;;;;;;;;;;5114784;28;20016;-74
2023/01/09 04:58:46;;;;;;;54.47;24.50;;;;;;;;;;5114238;28;20039;-74
2023/01/09 05:01:32;;;;;;;47.95;24.40;;;;;;;;;;5112932;28;20067;-75
2023/01/09 05:04:18;;;;;;;45.72;23.92;;;;;;;;;;5114413;28;20059;-74
2023/01/09 05:07:03;;;;;;;54.90;23.55;;;;;;;;;;5114383;28;20509;-72
2023/01/09 05:09:49;;;;;;;57.63;25.05;;;;;;;;;;5113924;28;20431;-72
2023/01/09 05:12:35;;;;;;;47.33;24.73;;;;;;;;;;5115268;28;20341;-73
2023/01/09 05:15:20;;;;;;;51.17;25.50;;;;;;;;;;5115139;28;20031;-74
2023/01/09 05:18:06;;;;;;;52.58;24.05;;;;;;;;;;5114524;28;20129;-75
2023/01/09 05:20:52;;;;;;;65.35;25.30;;;;;;;;;;5114027;28;20557;-74
2023/01/09 05:23:37;;;;;;;51.05;24.65;;;;;;;;;;5115381;28;20034;-75
2023/01/09 05:26:23;;;;;;;53.58;26.58;;;;;;;;;;5115639;28;20016;-74
2023/01/09 05:29:09;;;;;;;50.03;24.33;;;;;;;;;;5100829;28;20051;-74
2023/01/09 05:31:55;;;;;;;43.67;23.25;;;;;;;;;;5115163;28;20012;-74
2023/01/09 05:34:40;;;;;;;43.83;23.88;;;;;;;;;;5115284;28;20031;-74
2023/01/09 05:37:26;;;;;;;43.38;23.70;;;;;;;;;;5115118;28;20103;-74
2023/01/09 05:40:12;;;;;;;54.17;26.25;;;;;;;;;;5115180;28;20020;-74
2023/01/09 05:42:57;;;;;;;47.72;26.25;;;;;;;;;;5115580;28;20015;-74
2023/01/09 05:45:43;;;;;;;50.50;24.98;;;;;;;;;;5115555;28;20345;-76
2023/01/09 05:48:28;;;;;;;44.30;24.15;;;;;;;;;;5116041;28;20024;-74
2023/01/09 05:51:14;;;;;;;45.88;24.42;;;;;;;;;;5114277;28;20024;-76
2023/01/09 05:54:00;;;;;;;48.33;24.27;;;;;;;;;;5113510;28;20016;-75
2023/01/09 05:56:46;;;;;;;43.90;22.65;;;;;;;;;;5114555;28;20459;-75
2023/01/09 05:59:32;;;;;;;44.38;23.33;;;;;;;;;;5114111;28;20428;-75
2023/01/09 06:02:17;;;;;;;46.95;24.27;;;;;;;;;;5100746;28;20074;-76
2023/01/09 06:05:03;;;;;;;45.55;23.75;;;;;;;;;;5114968;28;20467;-74
2023/01/09 06:07:49;;;;;;;47.45;24.00;;;;;;;;;;5119823;28;20008;-73
2023/01/09 06:10:34;;;;;;;45.10;22.77;;;;;;;;;;5129441;28;20032;-73
2023/01/09 06:13:20;;;;;;;50.17;24.40;;;;;;;;;;5118029;28;20011;-76
2023/01/09 06:16:06;;;;;;;47.95;24.33;;;;;;;;;;5118119;28;20115;-74
2023/01/09 06:18:51;;;;;;;56.90;27.98;;;;;;;;;;5117599;28;20067;-75
2023/01/09 06:21:37;;;;;;;54.85;26.90;;;;;;;;;;5117694;28;20047;-74
2023/01/09 06:24:22;;;;;;;51.17;26.35;;;;;;;;;;5116706;28;20504;-73
2023/01/09 06:27:08;;;;;;;52.40;26.15;;;;;;;;;;5137101;28;20045;-74
2023/01/09 06:29:53;;;;;;;57.85;28.10;;;;;;;;;;5122928;28;20019;-75
2023/01/09 06:32:39;;;;;;;59.85;29.40;;;;;;;;;;5117286;28;20047;-75
2023/01/09 06:35:25;;;;;;;58.45;30.02;;;;;;;;;;5118216;28;20015;-74
2023/01/09 06:38:11;;;;;;;57.72;28.63;;;;;;;;;;5117187;28;20030;-75
2023/01/09 06:40:56;;;;;;;53.88;27.83;;;;;;;;;;5117076;28;20491;-75
2023/01/09 06:43:42;;;;;;;73.15;32.22;;;;;;;;;;5116326;28;20019;-75
2023/01/09 06:46:27;;;;;;;64.68;31.13;;;;;;;;;;5116364;28;20023;-75
2023/01/09 06:49:13;;;;;;;64.50;31.73;;;;;;;;;;5117926;28;20352;-76
2023/01/09 06:52:04;;;;;;;64.68;30.85;;;;;;;;;;5115789;28;20043;-76
2023/01/09 06:54:49;;;;;;;67.90;33.00;;;;;;;;;;5118695;28;20019;-75
2023/01/09 06:57:35;;;;;;;82.35;34.67;;;;;;;;;;5117051;28;20374;-76
2023/01/09 07:00:21;;;;;;;80.63;37.20;;;;;;;;;;5117052;28;20032;-74
2023/01/09 07:03:06;;;;;;;92.75;39.15;;;;;;;;;;5102526;28;20088;-76
2023/01/09 07:05:52;;;;;;;79.32;35.97;;;;;;;;;;5128194;28;20016;-74
2023/01/09 07:08:37;;;;;;;84.20;35.95;;;;;;;;;;5126917;28;20031;-75
2023/01/09 07:11:23;;;;;;;79.72;35.17;;;;;;;;;;5117316;28;20336;-77
2023/01/09 07:14:08;;;;;;;74.22;33.10;;;;;;;;;;5103729;28;20076;-74
2023/01/09 07:16:54;;;;;;;79.25;33.78;;;;;;;;;;5118012;28;20020;-75
2023/01/09 07:19:39;;;;;;;71.03;32.85;;;;;;;;;;5117520;28;20023;-74
2023/01/09 07:22:25;;;;;;;64.38;30.60;;;;;;;;;;5103047;28;20348;-76
2023/01/09 07:25:11;;;;;;;60.92;30.13;;;;;;;;;;5116073;28;20020;-74
2023/01/09 07:27:56;;;;;;;54.63;29.55;;;;;;;;;;5115217;28;20016;-75
2023/01/09 07:30:42;;;;;;;59.42;29.70;;;;;;;;;;5116523;28;20507;-75
2023/01/09 07:33:27;;;;;;;61.90;31.58;;;;;;;;;;5114952;28;20023;-76
2023/01/09 07:36:13;;;;;;;69.88;33.47;;;;;;;;;;5117084;28;20435;-74
2023/01/09 07:38:59;;;;;;;53.67;28.80;;;;;;;;;;5115611;28;20031;-75
2023/01/09 07:41:45;;;;;;;53.83;27.38;;;;;;;;;;5115426;28;20024;-75
2023/01/09 07:44:30;;;;;;;56.35;27.20;;;;;;;;;;5116262;28;20020;-76
2023/01/09 07:47:16;;;;;;;54.13;27.90;;;;;;;;;;5115043;28;20097;-75
2023/01/09 07:50:01;;;;;;;68.70;31.05;;;;;;;;;;5114757;28;20106;-75
2023/01/09 07:52:47;;;;;;;67.03;31.13;;;;;;;;;;5114649;28;20035;-76
2023/01/09 07:55:33;;;;;;;72.43;32.65;;;;;;;;;;5115694;28;20016;-76
2023/01/09 07:58:18;;;;;;;70.40;31.98;;;;;;;;;;5115194;28;20020;-75
2023/01/09 08:01:04;;;;;;;54.47;27.85;;;;;;;;;;5114805;28;20442;-75
2023/01/09 08:03:49;;;;;;;50.90;26.17;;;;;;;;;;5114920;28;20024;-74
2023/01/09 08:06:35;;;;;;;52.58;26.85;;;;;;;;;;5116604;28;20160;-75
2023/01/09 08:09:20;;;;;;;61.45;30.15;;;;;;;;;;5116483;28;20434;-75
2023/01/09 08:12:06;;;;;;;65.05;32.75;;;;;;;;;;5116546;28;20420;-74
2023/01/09 08:14:52;;;;;;;59.45;31.35;;;;;;;;;;5102149;28;20210;-76
2023/01/09 08:17:39;;;;;;;61.50;30.13;;;;;;;;;;5114515;28;20336;-76
2023/01/09 08:20:26;;;;;;;63.88;32.08;;;;;;;;;;5101502;28;20038;-74
2023/01/09 08:23:11;;;;;;;67.13;32.38;;;;;;;;;;5115168;28;20031;-75
2023/01/09 08:25:57;;;;;;;66.63;31.38;;;;;;;;;;5101757;28;20019;-75
2023/01/09 08:28:43;;;;;;;68.57;34.55;;;;;;;;;;5115094;28;20032;-74
2023/01/09 08:31:28;;;;;;;69.43;32.75;;;;;;;;;;5113977;28;20015;-75
2023/01/09 08:34:14;;;;;;;69.40;32.42;;;;;;;;;;5115064;28;20016;-75
2023/01/09 08:36:59;;;;;;;63.80;32.00;;;;;;;;;;5100150;28;20348;-75
2023/01/09 08:39:45;;;;;;;66.57;29.77;;;;;;;;;;5115311;28;20116;-76
2023/01/09 08:48:39;;;;;;;57.05;28.95;;;;;;;;;;5115907;28;20076;-75
2023/01/09 08:51:24;;;;;;;59.58;28.65;;;;;;;;;;5115388;28;20537;-74
2023/01/09 08:54:10;;;;;;;59.13;29.52;;;;;;;;;;5114450;28;20083;-75
2023/01/09 08:56:56;;;;;;;54.78;28.75;;;;;;;;;;5101364;28;20019;-75
2023/01/09 08:59:41;;;;;;;59.42;30.15;;;;;;;;;;5114543;28;20051;-74
2023/01/09 09:02:27;;;;;;;58.92;30.30;;;;;;;;;;5114342;28;20455;-74
2023/01/09 09:05:12;;;;;;;69.05;34.33;;;;;;;;;;5114589;28;20110;-75
2023/01/09 09:07:59;;;;;;;72.35;36.13;;;;;;;;;;5113837;28;20486;-74
2023/01/09 09:10:45;;;;;;;162.07;55.30;;;;;;;;;;5114685;28;20024;-75
2023/01/09 09:13:30;;;;;;;91.93;40.15;;;;;;;;;;5114627;28;20023;-75
2023/01/09 09:16:16;;;;;;;84.85;39.80;;;;;;;;;;5115285;28;20030;-74
2023/01/09 09:19:01;;;;;;;90.25;40.13;;;;;;;;;;5114593;28;20463;-74
2023/01/09 09:21:47;;;;;;;94.30;41.58;;;;;;;;;;5114680;28;20046;-74
2023/01/09 09:24:33;;;;;;;98.85;42.50;;;;;;;;;;5115352;28;20023;-73
2023/01/09 09:27:18;;;;;;;102.20;42.95;;;;;;;;;;5115536;28;20069;-74
2023/01/09 09:30:04;;;;;;;94.30;42.40;;;;;;;;;;5100825;28;20023;-75
2023/01/09 09:32:50;;;;;;;87.45;36.28;;;;;;;;;;5100132;28;20054;-74
2023/01/09 09:35:36;;;;;;;89.65;34.75;;;;;;;;;;5115333;28;20035;-74
2023/01/09 09:38:22;;;;;;;74.95;32.95;;;;;;;;;;5114162;28;20103;-74
2023/01/09 09:44:53;;;;;;;84.80;32.15;;;;;;;;;;5092704;28;20111;-73
2023/01/09 09:47:44;;;;;;;75.97;31.60;;;;;;;;;;5116846;28;20066;-74
2023/01/09 09:50:50;;;;;;;77.43;32.70;;;;;;;;;;5104707;28;20023;-75
2023/01/09 09:53:42;;;;;;;78.28;32.85;;;;;;;;;;5119315;28;20466;-74
2023/01/09 09:56:30;;;;;;;77.15;32.80;;;;;;;;;;5102711;28;20500;-76
2023/01/09 09:59:20;;;;;;;82.47;33.50;;;;;;;;;;5119421;28;20505;-74
2023/01/09 10:02:08;;;;;;;78.93;32.97;;;;;;;;;;5118223;28;20066;-76
2023/01/09 10:04:57;;;;;;;82.22;35.30;;;;;;;;;;5104351;28;20047;-75
2023/01/09 10:07:46;;;;;;;86.68;37.63;;;;;;;;;;5119462;28;20091;-75
2023/01/09 10:10:35;;;;;;;104.13;40.53;;;;;;;;;;5103303;28;20015;-74
2023/01/09 10:16:39;;;;;;;77.57;35.13;;;;;;;;;;5119084;28;20020;-75
2023/01/09 10:19:27;;;;;;;66.90;31.42;;;;;;;;;;5118897;28;20039;-74
2023/01/09 10:22:16;;;;;;;64.30;30.08;;;;;;;;;;5121499;28;20035;-75
2023/01/09 10:25:04;;;;;;;61.03;29.45;;;;;;;;;;5104317;28;20056;-75
2023/01/09 10:27:56;;;;;;;51.75;26.10;;;;;;;;;;5118742;28;20042;-74
2023/01/09 10:30:48;;;;;;;50.80;26.10;;;;;;;;;;5118211;28;20030;-76
2023/01/09 10:33:39;;;;;;;52.55;26.48;;;;;;;;;;5119000;28;20027;-75
2023/01/09 10:36:31;;;;;;;54.80;27.15;;;;;;;;;;5118446;28;20020;-75
2023/01/09 10:39:43;;;;;;;55.25;26.42;;;;;;;;;;5103990;28;20023;-75
2023/01/09 10:42:35;;;;;;;51.38;25.75;;;;;;;;;;5103883;28;20408;-75
2023/01/09 10:45:40;;;;;;;121.32;49.78;;;;;;;;;;5115707;28;20085;-75
2023/01/09 10:48:25;;;;;;;90.50;43.00;;;;;;;;;;5119537;28;20031;-75
2023/01/09 10:51:18;;;;;;;82.70;40.78;;;;;;;;;;5119596;28;20439;-75
2023/01/09 10:54:10;;;;;;;95.45;46.55;;;;;;;;;;5117798;28;20028;-74
2023/01/09 10:57:03;;;;;;;81.95;41.50;;;;;;;;;;5118468;28;20019;-74
2023/01/09 10:59:49;;;;;;;57.88;28.88;;;;;;;;;;5101900;28;20107;-74
2023/01/09 11:02:35;;;;;;;48.42;25.42;;;;;;;;;;5117834;28;20024;-74
2023/01/09 11:05:22;;;;;;;50.28;27.13;;;;;;;;;;5118097;28;20043;-74
2023/01/09 11:08:07;;;;;;;50.05;25.38;;;;;;;;;;5103156;28;20515;-73
2023/01/09 11:10:54;;;;;;;55.63;27.55;;;;;;;;;;5117310;28;20039;-75
2023/01/09 11:13:45;;;;;;;44.38;24.83;;;;;;;;;;5116795;28;20304;-74
2023/01/09 11:16:31;;;;;;;58.45;28.20;;;;;;;;;;5106127;28;20103;-75
2023/01/09 11:19:17;;;;;;;48.80;24.55;;;;;;;;;;5121796;28;20421;-74
2023/01/09 11:22:08;;;;;;;52.53;26.17;;;;;;;;;;5122048;28;20410;-75
2023/01/09 11:25:02;;;;;;;42.92;23.08;;;;;;;;;;5102606;28;20058;-76
2023/01/09 11:28:00;;;;;;;43.42;23.73;;;;;;;;;;5116899;28;20513;-74
2023/01/09 11:30:54;;;;;;;43.90;23.67;;;;;;;;;;5116453;28;20081;-75
2023/01/09 11:33:46;;;;;;;46.30;23.27;;;;;;;;;;5102535;28;20019;-76
2023/01/09 11:36:31;;;;;;;50.42;26.88;;;;;;;;;;5102535;28;20019;-75
2023/01/09 11:39:28;;;;;;;41.08;22.60;;;;;;;;;;5103844;28;20023;-75
2023/01/09 11:42:50;;;;;;;43.00;22.77;;;;;;;;;;5120016;28;20035;-75
2023/01/09 11:45:41;;;;;;;44.80;24.05;;;;;;;;;;5120320;28;20512;-75
2023/01/09 11:48:40;;;;;;;39.92;21.77;;;;;;;;;;5128973;28;20028;-75
2023/01/09 11:51:30;;;;;;;43.35;22.58;;;;;;;;;;5102156;28;20016;-74
2023/01/09 11:54:19;;;;;;;42.38;23.23;;;;;;;;;;5131213;28;20477;-74
2023/01/09 11:57:06;;;;;;;43.83;23.75;;;;;;;;;;5113781;28;20027;-75
2023/01/09 11:59:55;;;;;;;46.05;25.15;;;;;;;;;;5125916;28;20039;-78
2023/01/09 12:02:47;;;;;;;49.22;25.40;;;;;;;;;;5120712;28;20028;-75
2023/01/09 12:05:35;;;;;;;49.22;27.00;;;;;;;;;;5117109;28;20019;-76
2023/01/09 12:08:27;;;;;;;48.80;26.73;;;;;;;;;;5116472;28;20355;-75
2023/01/09 12:11:21;;;;;;;47.28;25.30;;;;;;;;;;5118033;28;20016;-75
2023/01/09 12:14:26;;;;;;;45.90;24.85;;;;;;;;;;5100557;28;20028;-75
2023/01/09 12:17:14;;;;;;;48.97;26.10;;;;;;;;;;5116032;28;20490;-74
2023/01/09 12:20:19;;;;;;;49.13;25.77;;;;;;;;;;5102312;28;20062;-75
2023/01/09 12:23:13;;;;;;;47.50;25.58;;;;;;;;;;5115661;28;20024;-75
2023/01/09 12:25:59;;;;;;;48.10;25.20;;;;;;;;;;5101904;28;20012;-75
2023/01/09 12:28:44;;;;;;;51.55;25.27;;;;;;;;;;5116731;28;20016;-75
2023/01/09 12:31:33;;;;;;;50.95;25.65;;;;;;;;;;5117245;28;20022;-75
2023/01/09 12:34:21;;;;;;;51.25;27.70;;;;;;;;;;5117070;28;20033;-75
2023/01/09 12:37:25;;;;;;;47.85;25.90;;;;;;;;;;5116211;28;20030;-75
2023/01/09 12:40:24;;;;;;;46.83;25.10;;;;;;;;;;5101896;28;20049;-75
2023/01/09 12:43:25;;;;;;;50.33;25.50;;;;;;;;;;5101277;28;20069;-75
2023/01/09 12:46:16;;;;;;;54.33;28.40;;;;;;;;;;5102079;28;20044;-75
2023/01/09 12:49:18;;;;;;;53.45;28.25;;;;;;;;;;5100826;28;20015;-76
2023/01/09 12:52:16;;;;;;;66.93;34.13;;;;;;;;;;5099428;28;20359;-76
2023/01/09 12:55:19;;;;;;;63.47;31.92;;;;;;;;;;5100200;28;20023;-75
2023/01/09 12:58:19;;;;;;;56.42;30.10;;;;;;;;;;5115498;28;20031;-76
2023/01/09 13:01:07;;;;;;;61.92;31.60;;;;;;;;;;5116295;28;20464;-75
2023/01/09 13:04:08;;;;;;;69.05;34.15;;;;;;;;;;5115236;28;20023;-75
2023/01/09 13:07:00;;;;;;;76.10;36.22;;;;;;;;;;5100617;28;20047;-75
2023/01/09 13:09:57;;;;;;;80.82;37.75;;;;;;;;;;5099762;28;20030;-74
2023/01/09 13:12:44;;;;;;;74.15;35.80;;;;;;;;;;5114430;28;20020;-75
2023/01/09 13:15:31;;;;;;;88.75;39.58;;;;;;;;;;5100138;28;20452;-75
2023/01/09 13:18:23;;;;;;;82.55;38.53;;;;;;;;;;5115107;28;20061;-74
2023/01/09 13:21:10;;;;;;;96.35;40.70;;;;;;;;;;5114537;28;20026;-76
2023/01/09 13:24:15;;;;;;;88.93;38.65;;;;;;;;;;5099238;28;20085;-73
2023/01/09 13:27:11;;;;;;;90.38;40.17;;;;;;;;;;5116045;28;20024;-75
2023/01/09 13:30:02;;;;;;;92.43;38.00;;;;;;;;;;5114651;28;20072;-75
2023/01/09 13:32:58;;;;;;;84.75;38.10;;;;;;;;;;5100523;28;20016;-74
2023/01/09 13:35:48;;;;;;;124.35;39.80;;;;;;;;;;5115210;28;20388;-74
2023/01/09 13:38:35;;;;;;;85.35;37.08;;;;;;;;;;5113180;28;20352;-73
2023/01/09 13:44:29;;;;;;;89.53;35.65;;;;;;;;;;5100968;28;20102;-74
2023/01/09 13:47:20;;;;;;;93.15;37.85;;;;;;;;;;5115008;28;20157;-75
2023/01/09 13:50:08;;;;;;;96.95;39.13;;;;;;;;;;5100037;28;20028;-74
2023/01/09 13:52:54;;;;;;;91.28;37.90;;;;;;;;;;5098913;28;20023;-74
2023/01/09 13:56:01;;;;;;;91.43;38.28;;;;;;;;;;5112973;28;20024;-73
2023/01/09 13:59:00;;;;;;;94.05;39.28;;;;;;;;;;5114226;28;20063;-72
2023/01/09 14:01:46;;;;;;;68.05;32.58;;;;;;;;;;5098642;28;20052;-74
2023/01/09 14:04:42;;;;;;;64.72;31.75;;;;;;;;;;5115440;28;20325;-75
2023/01/09 14:07:29;;;;;;;60.00;29.67;;;;;;;;;;5114127;28;20026;-74
2023/01/09 14:10:22;;;;;;;53.28;27.42;;;;;;;;;;5115096;28;20015;-75
2023/01/09 14:13:11;;;;;;;54.63;27.45;;;;;;;;;;5114809;28;20034;-74
2023/01/09 14:16:06;;;;;;;63.90;34.10;;;;;;;;;;5099582;28;20470;-74
2023/01/09 14:18:56;;;;;;;62.13;31.83;;;;;;;;;;5115008;28;20440;-74
2023/01/09 14:22:08;;;;;;;69.65;34.60;;;;;;;;;;5113034;28;20019;-73
2023/01/09 14:24:55;;;;;;;63.50;32.33;;;;;;;;;;5114684;28;20451;-73
2023/01/09 14:27:53;;;;;;;73.93;37.53;;;;;;;;;;5114737;28;20047;-75
2023/01/09 14:30:58;;;;;;;69.07;35.75;;;;;;;;;;5114738;28;20073;-74
2023/01/09 14:33:46;;;;;;;73.25;36.08;;;;;;;;;;5115726;28;20054;-74
2023/01/09 14:36:33;;;;;;;73.57;36.88;;;;;;;;;;5117298;28;20076;-75
2023/01/09 14:39:19;;;;;;;71.50;36.72;;;;;;;;;;5118233;28;20026;-73
2023/01/09 14:42:05;;;;;;;76.75;37.78;;;;;;;;;;5118178;28;20024;-74
2023/01/09 14:44:54;;;;;;;77.20;40.22;;;;;;;;;;5117881;28;20015;-73
2023/01/09 14:47:41;;;;;;;82.72;38.47;;;;;;;;;;5115604;28;20011;-73
2023/01/09 14:50:30;;;;;;;76.03;36.05;;;;;;;;;;5117960;28;20030;-74
2023/01/09 14:53:19;;;;;;;128.90;70.45;;;;;;;;;;5103575;28;20073;-74
2023/01/09 14:56:07;;;;;;;81.70;39.25;;;;;;;;;;5117554;28;20058;-75
2023/01/09 14:59:24;;;;;;;95.93;49.58;;;;;;;;;;5118163;28;20028;-74
2023/01/09 15:02:10;;;;;;;74.03;36.38;;;;;;;;;;5083862;28;20047;-73
2023/01/09 15:04:58;;;;;;;77.57;40.67;;;;;;;;;;5117805;28;20511;-75
2023/01/09 15:07:47;;;;;;;85.97;38.95;;;;;;;;;;5116240;28;20016;-74
2023/01/09 15:10:36;;;;;;;81.82;39.15;;;;;;;;;;5116645;28;20016;-73
2023/01/09 15:13:30;;;;;;;77.32;36.67;;;;;;;;;;5116258;28;20023;-74
2023/01/09 15:16:18;;;;;;;67.05;33.72;;;;;;;;;;5116858;28;20027;-73
2023/01/09 15:19:06;;;;;;;76.80;35.88;;;;;;;;;;5117651;28;20020;-74
2023/01/09 15:21:55;;;;;;;88.38;38.13;;;;;;;;;;5117076;28;20464;-74
2023/01/09 15:24:41;;;;;;;74.70;36.22;;;;;;;;;;5117807;28;20399;-74
2023/01/09 15:27:27;;;;;;;87.70;37.08;;;;;;;;;;5117125;28;20088;-73
2023/01/09 15:30:17;;;;;;;94.18;40.33;;;;;;;;;;5102268;28;20038;-74
2023/01/09 15:33:10;;;;;;;88.72;37.33;;;;;;;;;;5115695;28;20011;-75
2023/01/09 15:36:01;;;;;;;88.95;38.40;;;;;;;;;;5117786;28;20153;-74
2023/01/09 15:38:48;;;;;;;93.28;38.58;;;;;;;;;;5102368;28;20038;-74
2023/01/09 15:44:39;;;;;;;116.78;44.40;;;;;;;;;;5115862;28;20051;-75
2023/01/09 15:47:26;;;;;;;99.20;37.08;;;;;;;;;;5118559;28;20156;-75
2023/01/09 15:50:13;;;;;;;94.72;39.85;;;;;;;;;;5117333;28;20436;-75
2023/01/09 15:52:59;;;;;;;111.60;41.50;;;;;;;;;;5102057;28;20023;-75
2023/01/09 15:55:48;;;;;;;103.45;42.50;;;;;;;;;;5102682;28;20055;-73
2023/01/09 15:58:35;;;;;;;88.93;37.60;;;;;;;;;;5117350;28;20511;-75
2023/01/09 16:01:30;;;;;;;91.90;36.47;;;;;;;;;;5115014;28;20050;-73
2023/01/09 16:04:16;;;;;;;102.00;41.22;;;;;;;;;;5117710;28;20031;-74
2023/01/09 16:07:01;;;;;;;96.13;38.78;;;;;;;;;;5119377;28;20015;-75
2023/01/09 16:09:51;;;;;;;111.95;44.42;;;;;;;;;;5128098;28;20064;-73
2023/01/09 16:12:38;;;;;;;118.90;50.38;;;;;;;;;;5132726;28;20047;-73
2023/01/09 16:15:26;;;;;;;114.72;43.47;;;;;;;;;;5129780;28;20042;-73
2023/01/09 16:18:14;;;;;;;118.78;51.40;;;;;;;;;;5130914;28;20057;-74
2023/01/09 16:21:01;;;;;;;105.43;43.47;;;;;;;;;;5131614;28;20051;-73
2023/01/09 16:23:54;;;;;;;99.25;41.95;;;;;;;;;;5129310;28;20058;-73
2023/01/09 16:26:40;;;;;;;90.03;41.42;;;;;;;;;;5126150;28;20022;-74
2023/01/09 16:29:36;;;;;;;94.68;43.15;;;;;;;;;;5108372;28;20019;-74
2023/01/09 16:32:23;;;;;;;73.43;33.88;;;;;;;;;;5125422;28;20028;-72
2023/01/09 16:35:16;;;;;;;101.15;45.13;;;;;;;;;;5128562;28;20019;-75
2023/01/09 16:38:01;;;;;;;75.78;34.90;;;;;;;;;;5126491;28;20390;-74
2023/01/09 16:44:10;;;;;;;77.05;34.65;;;;;;;;;;5117368;28;20099;-74
2023/01/09 16:46:57;;;;;;;75.97;38.10;;;;;;;;;;5102917;28;20475;-74